createdAt,value
2022-10-30T00:01:37.873Z,99739.16
2022-10-30T00:04:04.729Z,99741.13
2022-10-30T00:06:31.369Z,99733.13
2022-10-30T00:08:57.949Z,99738.66
2022-10-30T00:11:24.611Z,99739.81
2022-10-30T00:13:51.330Z,99730.28
2022-10-30T00:16:18.196Z,99731.47
2022-10-30T00:18:44.831Z,99732.25
2022-10-30T00:21:14.291Z,99738.91
2022-10-30T00:23:52.283Z,99723.00
2022-10-30T00:26:20.723Z,99736.03
2022-10-30T00:28:55.179Z,99740.81
2022-10-30T00:31:22.559Z,99736.03
2022-10-30T00:33:54.082Z,99746.78
2022-10-30T00:36:21.610Z,99757.56
2022-10-30T00:38:48.399Z,99767.13
2022-10-30T00:41:20.750Z,99750.94
2022-10-30T00:43:48.369Z,99750.94
2022-10-30T00:46:28.030Z,99753.69
2022-10-30T00:48:59.399Z,99753.69
2022-10-30T00:51:29.145Z,99735.38
2022-10-30T00:53:59.435Z,99735.78
2022-10-30T00:56:27.014Z,99738.56
2022-10-30T00:59:05.520Z,99729.03
2022-10-30T01:01:36.805Z,99739.34
2022-10-30T01:04:06.782Z,99721.91
2022-10-30T01:06:37.020Z,99731.44
2022-10-30T01:09:04.359Z,99729.06
2022-10-30T01:11:31.489Z,99725.94
2022-10-30T01:14:03.378Z,99727.47
2022-10-30T01:16:29.930Z,99730.22
2022-10-30T01:19:26.478Z,99723.41
2022-10-30T01:22:05.265Z,99706.69
2022-10-30T01:24:55.675Z,99718.50
2022-10-30T01:27:51.523Z,99705.41
2022-10-30T01:30:36.493Z,99720.06
2022-10-30T01:33:21.664Z,99718.50
2022-10-30T01:36:04.689Z,99713.72
2022-10-30T01:38:47.468Z,99712.09
2022-10-30T01:41:14.171Z,99709.72
2022-10-30T01:43:42.333Z,99697.06
2022-10-30T01:46:42.162Z,99703.44
2022-10-30T01:52:39.742Z,99707.41
2022-10-30T01:55:33.700Z,99714.88
2022-10-30T01:58:03.114Z,99711.69
2022-10-30T02:00:29.782Z,99705.72
2022-10-30T02:02:56.702Z,99703.72
2022-10-30T02:05:33.625Z,99703.72
2022-10-30T02:08:01.919Z,99703.72
2022-10-30T02:10:30.637Z,99695.41
2022-10-30T02:12:57.440Z,99703.38
2022-10-30T02:15:24.376Z,99704.19
2022-10-30T02:17:51.002Z,99700.31
2022-10-30T02:20:19.206Z,99697.19
2022-10-30T02:22:46.864Z,99694.44
2022-10-30T02:25:14.455Z,99692.09
2022-10-30T02:27:41.484Z,99687.34
2022-10-30T02:30:08.755Z,99696.06
2022-10-30T02:32:38.461Z,99695.28
2022-10-30T02:35:05.577Z,99702.81
2022-10-30T02:37:36.054Z,99687.34
2022-10-30T02:40:04.290Z,99672.66
2022-10-30T02:42:30.908Z,99677.44
2022-10-30T02:44:57.573Z,99673.50
2022-10-30T02:47:24.268Z,99681.06
2022-10-30T02:49:50.923Z,99663.28
2022-10-30T02:52:17.689Z,99655.75
2022-10-30T02:54:44.263Z,99664.06
2022-10-30T02:57:10.926Z,99669.25
2022-10-30T02:59:37.625Z,99668.84
2022-10-30T03:02:04.404Z,99667.28
2022-10-30T03:04:31.131Z,99679.97
2022-10-30T03:06:57.716Z,99671.63
2022-10-30T03:09:24.306Z,99685.50
2022-10-30T03:11:50.940Z,99674.03
2022-10-30T03:14:17.625Z,99679.19
2022-10-30T03:16:44.253Z,99681.97
2022-10-30T03:19:11.068Z,99678.78
2022-10-30T03:21:37.757Z,99683.13
2022-10-30T03:24:04.754Z,99685.16
2022-10-30T03:26:31.377Z,99684.75
2022-10-30T03:28:57.973Z,99680.81
2022-10-30T03:31:24.677Z,99668.50
2022-10-30T03:33:51.387Z,99678.81
2022-10-30T03:36:18.385Z,99667.72
2022-10-30T03:38:45.007Z,99669.69
2022-10-30T03:41:11.647Z,99676.06
2022-10-30T03:43:38.346Z,99674.47
2022-10-30T03:46:05.192Z,99673.69
2022-10-30T03:48:31.991Z,99670.09
2022-10-30T03:50:59.915Z,99660.16
2022-10-30T03:53:28.609Z,99651.06
2022-10-30T03:56:03.537Z,99646.28
2022-10-30T03:58:30.777Z,99651.06
2022-10-30T04:01:04.504Z,99643.50
2022-10-30T04:03:31.273Z,99638.38
2022-10-30T04:05:58.072Z,99636.03
2022-10-30T04:08:24.712Z,99647.53
2022-10-30T04:10:54.003Z,99633.25
2022-10-30T04:13:20.706Z,99631.72
2022-10-30T04:15:56.108Z,99628.13
2022-10-30T04:18:25.027Z,99625.34
2022-10-30T04:20:51.784Z,99624.19
2022-10-30T04:23:20.076Z,99630.19
2022-10-30T04:25:46.794Z,99625.06
2022-10-30T04:28:14.278Z,99618.31
2022-10-30T04:30:40.977Z,99612.38
2022-10-30T04:33:11.470Z,99615.16
2022-10-30T04:35:38.794Z,99610.78
2022-10-30T04:38:08.718Z,99607.19
2022-10-30T04:40:37.826Z,99608.38
2022-10-30T04:43:05.197Z,99610.78
2022-10-30T04:45:32.374Z,99615.88
2022-10-30T04:48:08.066Z,99612.34
2022-10-30T04:50:35.493Z,99615.47
2022-10-30T04:53:04.388Z,99613.09
2022-10-30T04:55:31.980Z,99607.91
2022-10-30T04:58:00.402Z,99603.97
2022-10-30T05:00:27.533Z,99591.66
2022-10-30T05:03:01.264Z,99606.34
2022-10-30T05:05:31.800Z,99612.72
2022-10-30T05:07:59.086Z,99607.91
2022-10-30T05:10:25.914Z,99610.28
2022-10-30T05:12:56.201Z,99599.97
2022-10-30T05:15:22.845Z,99603.91
2022-10-30T05:17:53.791Z,99603.06
2022-10-30T05:20:21.496Z,99606.97
2022-10-30T05:22:55.504Z,99610.47
2022-10-30T05:25:22.705Z,99623.09
2022-10-30T05:27:49.417Z,99624.25
2022-10-30T05:30:16.181Z,99617.06
2022-10-30T05:32:42.896Z,99618.63
2022-10-30T05:35:09.520Z,99617.03
2022-10-30T05:37:36.297Z,99603.53
2022-10-30T05:40:03.048Z,99595.63
2022-10-30T05:42:29.617Z,99579.34
2022-10-30T05:45:01.043Z,99576.56
2022-10-30T05:47:28.615Z,99574.97
2022-10-30T05:49:56.429Z,99586.06
2022-10-30T05:52:23.064Z,99582.88
2022-10-30T05:54:49.762Z,99597.94
2022-10-30T05:57:16.371Z,99600.31
2022-10-30T05:59:42.966Z,99595.13
2022-10-30T06:02:09.659Z,99598.28
2022-10-30T06:04:36.548Z,99594.72
2022-10-30T06:07:03.185Z,99601.06
2022-10-30T06:09:30.017Z,99589.97
2022-10-30T06:11:56.789Z,99597.50
2022-10-30T06:14:23.452Z,99581.25
2022-10-30T06:16:50.397Z,99584.38
2022-10-30T06:19:18.744Z,99576.47
2022-10-30T06:21:46.591Z,99576.81
2022-10-30T06:24:14.152Z,99581.97
2022-10-30T06:26:41.096Z,99579.59
2022-10-30T06:29:07.764Z,99569.25
2022-10-30T06:31:34.434Z,99567.69
2022-10-30T06:34:01.216Z,99567.28
2022-10-30T06:36:27.907Z,99566.03
2022-10-30T06:38:54.512Z,99558.88
2022-10-30T06:41:24.626Z,99560.41
2022-10-30T06:43:56.775Z,99555.63
2022-10-30T06:46:25.798Z,99551.59
2022-10-30T06:48:55.636Z,99558.28
2022-10-30T06:51:22.612Z,99559.78
2022-10-30T06:53:49.461Z,99553.78
2022-10-30T06:56:16.186Z,99552.97
2022-10-30T06:58:43.299Z,99564.38
2022-10-30T07:01:10.034Z,99561.56
2022-10-30T07:03:37.001Z,99559.16
2022-10-30T07:06:03.873Z,99560.72
2022-10-30T07:08:30.473Z,99560.66
2022-10-30T07:10:58.705Z,99561.41
2022-10-30T07:13:25.360Z,99558.97
2022-10-30T07:15:53.028Z,99565.69
2022-10-30T07:18:19.666Z,99558.16
2022-10-30T07:20:46.340Z,99562.91
2022-10-30T07:23:13.030Z,99564.06
2022-10-30T07:25:39.608Z,99566.03
2022-10-30T07:28:06.260Z,99555.75
2022-10-30T07:30:32.912Z,99554.13
2022-10-30T07:33:04.507Z,99545.06
2022-10-30T07:35:32.705Z,99552.16
2022-10-30T07:38:08.278Z,99544.19
2022-10-30T07:40:34.907Z,99533.50
2022-10-30T07:43:03.039Z,99537.09
2022-10-30T07:45:30.653Z,99532.72
2022-10-30T07:47:57.919Z,99526.78
2022-10-30T07:50:25.153Z,99525.63
2022-10-30T07:52:51.770Z,99525.22
2022-10-30T07:55:18.489Z,99516.97
2022-10-30T07:57:45.129Z,99511.47
2022-10-30T08:00:14.056Z,99510.72
2022-10-30T08:02:41.649Z,99509.94
2022-10-30T08:05:09.500Z,99517.94
2022-10-30T08:07:38.284Z,99517.59
2022-10-30T08:10:05.795Z,99526.31
2022-10-30T08:12:33.691Z,99525.16
2022-10-30T08:15:00.923Z,99536.28
2022-10-30T08:17:27.866Z,99525.63
2022-10-30T08:19:55.442Z,99541.09
2022-10-30T08:22:22.113Z,99533.19
2022-10-30T08:24:48.916Z,99532.00
2022-10-30T08:27:15.567Z,99528.78
2022-10-30T08:29:42.352Z,99542.66
2022-10-30T08:32:08.970Z,99548.97
2022-10-30T08:34:35.738Z,99545.81
2022-10-30T08:37:02.395Z,99544.66
2022-10-30T08:39:29.019Z,99555.34
2022-10-30T08:41:59.106Z,99545.88
2022-10-30T08:44:26.081Z,99549.84
2022-10-30T08:46:54.725Z,99552.22
2022-10-30T08:49:21.352Z,99549.88
2022-10-30T08:51:48.056Z,99553.84
2022-10-30T08:54:14.723Z,99557.84
2022-10-30T08:56:41.323Z,99556.66
2022-10-30T08:59:08.046Z,99561.47
2022-10-30T09:01:36.499Z,99559.94
2022-10-30T09:04:03.702Z,99558.78
2022-10-30T09:06:31.692Z,99566.34
2022-10-30T09:08:58.350Z,99568.41
2022-10-30T09:11:25.000Z,99566.03
2022-10-30T09:13:51.607Z,99563.34
2022-10-30T09:16:18.536Z,99551.91
2022-10-30T09:18:45.122Z,99563.03
2022-10-30T09:21:11.856Z,99559.16
2022-10-30T09:23:38.642Z,99557.63
2022-10-30T09:26:05.402Z,99552.09
2022-10-30T09:28:32.002Z,99552.53
2022-10-30T09:30:58.657Z,99556.94
2022-10-30T09:33:25.355Z,99552.19
2022-10-30T09:35:51.944Z,99557.72
2022-10-30T09:38:18.579Z,99546.25
2022-10-30T09:41:17.865Z,99553.41
2022-10-30T09:44:04.516Z,99553.84
2022-10-30T09:46:55.272Z,99556.28
2022-10-30T09:49:39.336Z,99544.41
2022-10-30T09:52:29.552Z,99542.78
2022-10-30T09:54:56.229Z,99546.75
2022-10-30T09:57:56.997Z,99551.91
2022-10-30T10:00:33.531Z,99567.41
2022-10-30T10:03:41.940Z,99562.69
2022-10-30T10:06:16.375Z,99554.78
2022-10-30T10:08:50.211Z,99563.59
2022-10-30T10:11:25.725Z,99560.03
2022-10-30T10:14:08.681Z,99546.94
2022-10-30T10:16:40.653Z,99545.78
2022-10-30T10:19:20.093Z,99547.38
2022-10-30T10:21:53.273Z,99539.94
2022-10-30T10:24:24.982Z,99543.91
2022-10-30T10:26:57.720Z,99538.38
2022-10-30T10:29:57.939Z,99531.19
2022-10-30T10:32:52.487Z,99539.53
2022-10-30T10:35:48.337Z,99547.84
2022-10-30T10:38:24.117Z,99552.53
2022-10-30T10:41:19.311Z,99544.22
2022-10-30T10:44:07.005Z,99540.59
2022-10-30T10:47:07.349Z,99547.75
2022-10-30T10:49:47.898Z,99562.03
2022-10-30T10:52:14.438Z,99562.03
2022-10-30T10:54:45.382Z,99570.75
2022-10-30T10:57:28.941Z,99578.69
2022-10-30T11:00:05.037Z,99585.06
2022-10-30T11:03:04.112Z,99590.63
2022-10-30T11:05:39.342Z,99591.44
2022-10-30T11:08:19.650Z,99589.44
2022-10-30T11:10:55.865Z,99602.56
2022-10-30T11:13:25.790Z,99590.72
2022-10-30T11:16:02.301Z,99588.41
2022-10-30T11:18:28.900Z,99566.25
2022-10-30T11:21:08.455Z,99573.38
2022-10-30T11:23:41.341Z,99572.97
2022-10-30T11:26:23.082Z,99578.13
2022-10-30T11:28:55.468Z,99571.75
2022-10-30T11:31:24.046Z,99563.03
2022-10-30T11:33:51.530Z,99563.03
2022-10-30T11:36:22.961Z,99578.09
2022-10-30T11:38:50.599Z,99567.38
2022-10-30T11:41:18.181Z,99570.16
2022-10-30T11:43:45.390Z,99578.91
2022-10-30T11:46:20.842Z,99594.00
2022-10-30T11:48:54.772Z,99595.56
2022-10-30T11:51:39.696Z,99597.13
2022-10-30T11:54:07.249Z,99598.72
2022-10-30T11:56:35.649Z,99585.59
2022-10-30T11:59:04.564Z,99594.69
2022-10-30T12:01:37.342Z,99590.31
2022-10-30T12:04:24.771Z,99584.31
2022-10-30T12:07:08.188Z,99592.25
2022-10-30T12:09:45.526Z,99599.41
2022-10-30T12:12:34.837Z,99591.50
2022-10-30T12:15:20.000Z,99605.00
2022-10-30T12:18:01.862Z,99595.53
2022-10-30T12:20:29.043Z,99602.72
2022-10-30T12:22:56.225Z,99596.38
2022-10-30T12:25:31.192Z,99603.59
2022-10-30T12:28:06.877Z,99591.31
2022-10-30T12:30:49.881Z,99587.72
2022-10-30T12:33:23.173Z,99602.78
2022-10-30T12:35:49.741Z,99590.88
2022-10-30T12:38:26.891Z,99594.84
2022-10-30T12:41:12.606Z,99588.50
2022-10-30T12:43:42.503Z,99590.06
2022-10-30T12:46:30.301Z,99600.38
2022-10-30T12:49:02.428Z,99580.91
2022-10-30T12:51:39.049Z,99583.66
2022-10-30T12:54:12.955Z,99575.75
2022-10-30T12:56:44.221Z,99584.50
2022-10-30T12:59:29.216Z,99584.94
2022-10-30T13:02:01.923Z,99576.19
2022-10-30T13:04:36.517Z,99590.53
2022-10-30T13:07:18.311Z,99592.91
2022-10-30T13:10:12.789Z,99597.25
2022-10-30T13:12:43.107Z,99597.22
2022-10-30T13:15:12.849Z,99583.72
2022-10-30T13:17:39.452Z,99588.53
2022-10-30T13:20:13.972Z,99597.31
2022-10-30T13:22:57.811Z,99593.34
2022-10-30T13:25:44.608Z,99588.59
2022-10-30T13:28:16.289Z,99589.78
2022-10-30T13:30:57.080Z,99595.78
2022-10-30T13:33:45.044Z,99598.16
2022-10-30T13:36:15.319Z,99590.19
2022-10-30T13:39:22.423Z,99612.88
2022-10-30T13:42:10.570Z,99618.84
2022-10-30T13:44:43.209Z,99612.47
2022-10-30T13:47:21.780Z,99621.97
2022-10-30T13:50:07.168Z,99612.44
2022-10-30T13:52:38.086Z,99626.38
2022-10-30T13:55:27.501Z,99621.19
2022-10-30T13:57:57.167Z,99628.34
2022-10-30T14:00:50.782Z,99635.53
2022-10-30T14:03:51.587Z,99639.53
2022-10-30T14:06:45.450Z,99635.13
2022-10-30T14:09:27.136Z,99637.94
2022-10-30T14:11:55.355Z,99635.13
2022-10-30T14:14:31.590Z,99643.88
2022-10-30T14:17:08.878Z,99653.84
2022-10-30T14:20:13.727Z,99651.50
2022-10-30T14:22:41.398Z,99657.06
2022-10-30T14:25:15.997Z,99646.72
2022-10-30T14:27:42.831Z,99652.28
2022-10-30T14:30:28.781Z,99657.44
2022-10-30T14:32:55.439Z,99666.16
2022-10-30T14:35:34.328Z,99661.44
2022-10-30T14:38:06.850Z,99664.22
2022-10-30T14:40:51.753Z,99662.63
2022-10-30T14:43:28.393Z,99669.78
2022-10-30T14:46:05.552Z,99670.97
2022-10-30T14:49:11.478Z,99698.00
2022-10-30T14:51:44.646Z,99691.19
2022-10-30T14:54:31.224Z,99690.38
2022-10-30T14:56:57.970Z,99695.13
2022-10-30T14:59:33.607Z,99696.72
2022-10-30T15:02:15.548Z,99707.03
2022-10-30T15:04:50.696Z,99719.75
2022-10-30T15:07:41.610Z,99708.59
2022-10-30T15:10:24.223Z,99712.56
2022-10-30T15:13:05.293Z,99719.28
2022-10-30T15:15:32.525Z,99728.78
2022-10-30T15:18:03.596Z,99726.00
2022-10-30T15:20:33.255Z,99737.91
2022-10-30T15:23:14.137Z,99743.47
2022-10-30T15:25:51.045Z,99732.41
2022-10-30T15:31:01.312Z,99741.16
2022-10-30T15:33:28.510Z,99746.72
2022-10-30T15:35:55.178Z,99754.66
2022-10-30T15:38:22.312Z,99764.94
2022-10-30T15:40:49.578Z,99764.16
2022-10-30T15:43:18.011Z,99770.50
2022-10-30T15:45:47.419Z,99751.78
2022-10-30T15:48:23.461Z,99765.28
2022-10-30T15:51:03.002Z,99762.88
2022-10-30T15:53:41.649Z,99770.78
2022-10-30T15:56:21.137Z,99755.28
2022-10-30T15:58:54.533Z,99774.72
2022-10-30T16:01:39.723Z,99764.38
2022-10-30T16:04:20.911Z,99779.06
2022-10-30T16:07:00.548Z,99781.00
2022-10-30T16:09:28.746Z,99787.75
2022-10-30T16:11:58.467Z,99779.00
2022-10-30T16:14:32.712Z,99791.69
2022-10-30T16:17:00.515Z,99795.63
2022-10-30T16:19:35.847Z,99798.00
2022-10-30T16:22:02.532Z,99795.19
2022-10-30T16:24:34.324Z,99796.75
2022-10-30T16:27:19.661Z,99789.94
2022-10-30T16:29:51.771Z,99803.41
2022-10-30T16:32:22.369Z,99807.75
2022-10-30T16:34:51.057Z,99804.94
2022-10-30T16:37:19.523Z,99807.72
2022-10-30T16:39:49.633Z,99823.53
2022-10-30T16:42:24.163Z,99819.94
2022-10-30T16:44:52.198Z,99829.41
2022-10-30T16:47:18.741Z,99838.94
2022-10-30T16:49:53.369Z,99832.97
2022-10-30T16:52:25.195Z,99834.91
2022-10-30T16:55:22.140Z,99838.44
2022-10-30T16:57:57.411Z,99849.53
2022-10-30T17:00:27.433Z,99842.31
2022-10-30T17:02:58.251Z,99849.06
2022-10-30T17:05:26.762Z,99849.00
2022-10-30T17:08:01.515Z,99864.88
2022-10-30T17:10:53.939Z,99858.50
2022-10-30T17:13:29.621Z,99861.63
2022-10-30T17:15:56.637Z,99861.56
2022-10-30T17:18:31.485Z,99868.66
2022-10-30T17:21:38.393Z,99883.31
2022-10-30T17:24:05.749Z,99877.75
2022-10-30T17:26:39.131Z,99886.06
2022-10-30T17:29:05.921Z,99886.06
2022-10-30T17:31:38.227Z,99888.44
2022-10-30T17:34:10.581Z,99891.97
2022-10-30T17:36:38.449Z,99899.50
2022-10-30T17:39:05.848Z,99889.59
2022-10-30T17:41:33.308Z,99884.41
2022-10-30T17:44:01.404Z,99895.50
2022-10-30T17:46:28.796Z,99896.66
2022-10-30T17:48:57.756Z,99909.31
2022-10-30T17:51:24.548Z,99909.75
2022-10-30T17:53:52.212Z,99916.09
2022-10-30T17:56:33.221Z,99914.09
2022-10-30T17:58:59.934Z,99924.75
2022-10-30T18:01:27.696Z,99934.28
2022-10-30T18:03:55.682Z,99930.28
2022-10-30T18:06:26.347Z,99925.13
2022-10-30T18:08:53.620Z,99931.06
2022-10-30T18:11:23.386Z,99937.03
2022-10-30T18:13:51.693Z,99939.81
2022-10-30T18:16:19.680Z,99940.97
2022-10-30T18:18:46.677Z,99942.19
2022-10-30T18:21:16.109Z,99951.66
2022-10-30T18:23:58.004Z,99940.94
2022-10-30T18:26:27.932Z,99941.31
2022-10-30T18:28:55.142Z,99950.03
2022-10-30T18:31:24.311Z,99948.41
2022-10-30T18:33:51.162Z,99943.25
2022-10-30T18:36:23.171Z,99955.09
2022-10-30T18:38:50.429Z,99962.97
2022-10-30T18:41:23.121Z,99965.75
2022-10-30T18:43:50.080Z,99969.72
2022-10-30T18:46:17.054Z,99967.69
2022-10-30T18:48:44.699Z,99976.81
2022-10-30T18:51:17.753Z,99987.50
2022-10-30T18:53:54.053Z,99994.59
2022-10-30T18:56:23.359Z,99992.16
2022-10-30T18:58:54.851Z,99988.97
2022-10-30T19:01:25.566Z,99980.22
2022-10-30T19:03:52.598Z,99994.03
2022-10-30T19:06:21.888Z,99994.03
2022-10-30T19:08:49.278Z,99988.50
2022-10-30T19:11:22.078Z,99982.94
2022-10-30T19:13:51.559Z,99983.75
2022-10-30T19:16:19.677Z,99988.50
2022-10-30T19:18:47.559Z,99989.28
2022-10-30T19:21:21.454Z,99994.47
2022-10-30T19:23:48.498Z,99996.06
2022-10-30T19:26:16.244Z,99997.22
2022-10-30T19:28:43.960Z,99997.63
2022-10-30T19:31:15.194Z,100004.31
2022-10-30T19:33:42.037Z,99997.19
2022-10-30T19:36:47.253Z,100001.94
2022-10-30T19:39:16.924Z,100009.81
2022-10-30T19:41:43.875Z,100010.56
2022-10-30T19:44:10.700Z,100019.25
2022-10-30T19:46:37.606Z,100013.66
2022-10-30T19:49:23.159Z,100011.31
2022-10-30T19:51:49.740Z,100008.53
2022-10-30T19:54:16.328Z,100012.47
2022-10-30T19:56:45.794Z,100014.44
2022-10-30T19:59:14.669Z,100007.66
2022-10-30T20:01:41.854Z,100016.38
2022-10-30T20:04:08.796Z,100008.41
2022-10-30T20:06:35.495Z,100009.94
2022-10-30T20:09:02.649Z,100018.25
2022-10-30T20:11:30.135Z,100011.94
2022-10-30T20:13:56.802Z,100011.94
2022-10-30T20:16:23.858Z,100017.50
2022-10-30T20:18:50.956Z,100026.66
2022-10-30T20:21:19.260Z,100015.56
2022-10-30T20:23:46.123Z,100010.44
2022-10-30T20:26:29.570Z,100023.16
2022-10-30T20:28:56.356Z,100005.63
2022-10-30T20:31:23.444Z,100019.88
2022-10-30T20:33:50.081Z,100004.78
2022-10-30T20:36:16.752Z,100013.47
2022-10-30T20:38:43.339Z,100014.53
2022-10-30T20:41:21.045Z,100005.81
2022-10-30T20:43:50.046Z,100008.16
2022-10-30T20:46:17.250Z,100020.41
2022-10-30T20:48:44.010Z,100006.91
2022-10-30T20:51:11.529Z,100014.00
2022-10-30T20:53:38.275Z,100005.22
2022-10-30T20:56:05.252Z,100008.38
2022-10-30T20:58:31.926Z,100014.31
2022-10-30T21:00:59.500Z,100003.97
2022-10-30T21:03:26.981Z,99997.97
2022-10-30T21:06:01.331Z,100006.28
2022-10-30T21:08:31.405Z,100002.00
2022-10-30T21:10:59.966Z,99984.97
2022-10-30T21:13:27.249Z,99997.31
2022-10-30T21:15:54.215Z,99996.50
2022-10-30T21:18:21.882Z,99998.84
2022-10-30T21:20:48.489Z,99993.69
2022-10-30T21:23:15.199Z,99986.88
2022-10-30T21:25:41.836Z,99995.56
2022-10-30T21:28:08.441Z,99983.63
2022-10-30T21:30:35.061Z,99978.81
2022-10-30T21:33:02.123Z,99988.22
2022-10-30T21:35:28.956Z,99994.53
2022-10-30T21:37:55.805Z,99985.75
2022-10-30T21:40:22.528Z,99983.28
2022-10-30T21:42:49.235Z,99994.34
2022-10-30T21:45:16.176Z,99991.50
2022-10-30T21:47:42.797Z,99995.78
2022-10-30T21:50:12.527Z,99986.25
2022-10-30T21:52:40.407Z,99989.38
2022-10-30T21:55:08.124Z,99986.16
2022-10-30T21:57:35.246Z,99988.50
2022-10-30T22:00:05.864Z,99989.31
2022-10-30T22:02:34.290Z,99981.44
2022-10-30T22:05:00.894Z,99989.44
2022-10-30T22:07:27.515Z,99992.28
2022-10-30T22:09:54.178Z,99988.84
2022-10-30T22:12:21.496Z,99984.97
2022-10-30T22:14:50.048Z,99984.28
2022-10-30T22:17:16.688Z,99980.38
2022-10-30T22:19:43.313Z,99981.16
2022-10-30T22:22:11.262Z,99981.94
2022-10-30T22:24:38.464Z,99966.88
2022-10-30T22:27:05.418Z,99984.28
2022-10-30T22:29:32.103Z,99984.72
2022-10-30T22:31:59.755Z,99981.94
2022-10-30T22:34:26.375Z,99983.56
2022-10-30T22:36:52.997Z,99976.47
2022-10-30T22:39:19.647Z,99979.31
2022-10-30T22:41:46.375Z,99983.75
2022-10-30T22:44:17.603Z,99978.69
2022-10-30T22:46:44.643Z,99982.78
2022-10-30T22:49:11.842Z,99983.63
2022-10-30T22:51:39.568Z,99978.91
2022-10-30T22:54:08.269Z,99984.22
2022-10-30T22:56:36.369Z,99983.91
2022-10-30T22:59:06.027Z,99978.03
2022-10-30T23:01:35.106Z,99980.06
2022-10-30T23:04:04.536Z,99968.66
2022-10-30T23:06:31.815Z,99963.53
2022-10-30T23:09:00.212Z,99960.81
2022-10-30T23:11:27.884Z,99955.25
2022-10-30T23:13:54.941Z,99946.50
2022-10-30T23:16:23.480Z,99944.44
2022-10-30T23:18:51.995Z,99947.94
2022-10-30T23:21:22.883Z,99943.13
2022-10-30T23:23:51.176Z,99938.34
2022-10-30T23:26:19.142Z,99947.84
2022-10-30T23:28:47.800Z,99937.91
2022-10-30T23:31:36.133Z,99930.75
2022-10-30T23:34:05.719Z,99939.03
2022-10-30T23:36:32.700Z,99941.75
2022-10-30T23:39:01.514Z,99926.63
2022-10-30T23:41:30.643Z,99939.69
2022-10-30T23:43:59.836Z,99938.88
2022-10-30T23:46:26.765Z,99938.88
2022-10-30T23:48:53.826Z,99939.69
2022-10-30T23:51:20.658Z,99941.75
2022-10-30T23:53:47.855Z,99941.75
2022-10-30T23:56:14.878Z,99941.38
2022-10-30T23:58:48.714Z,99943.78
